createdAt,value
2024-02-01T00:00:01.862Z,83.25
2024-02-01T00:02:28.930Z,81.93
2024-02-01T00:04:55.998Z,82.95
2024-02-01T00:07:22.935Z,85.88
2024-02-01T00:09:50.062Z,84.05
2024-02-01T00:12:17.112Z,87.90
2024-02-01T00:14:44.783Z,88.90
2024-02-01T00:17:11.810Z,88.25
2024-02-01T00:19:38.985Z,93.90
2024-02-01T00:22:09.098Z,88.38
2024-02-01T00:24:40.177Z,88.40
2024-02-01T00:27:07.136Z,93.25
2024-02-01T00:29:34.179Z,93.10
2024-02-01T00:32:01.141Z,94.35
2024-02-01T00:34:30.578Z,92.85
2024-02-01T00:36:57.656Z,91.32
2024-02-01T00:39:24.572Z,90.10
2024-02-01T00:41:51.610Z,91.53
2024-02-01T00:44:18.626Z,92.97
2024-02-01T00:46:45.668Z,90.95
2024-02-01T00:49:13.739Z,94.45
2024-02-01T00:51:41.232Z,95.97
2024-02-01T00:54:08.397Z,91.75
2024-02-01T00:56:35.489Z,97.88
2024-02-01T00:59:02.511Z,95.18
2024-02-01T01:01:29.605Z,99.18
2024-02-01T01:03:57.276Z,100.47
2024-02-01T01:06:24.285Z,97.35
2024-02-01T01:08:51.258Z,97.43
2024-02-01T01:11:18.218Z,96.57
2024-02-01T01:13:45.195Z,100.70
2024-02-01T01:16:12.338Z,99.93
2024-02-01T01:18:39.323Z,102.15
2024-02-01T01:21:06.350Z,101.20
2024-02-01T01:23:33.395Z,103.63
2024-02-01T01:26:00.387Z,101.60
2024-02-01T01:28:27.277Z,99.55
2024-02-01T01:30:54.290Z,99.03
2024-02-01T01:33:21.247Z,101.43
2024-02-01T01:35:48.301Z,97.18
2024-02-01T01:38:15.246Z,99.72
2024-02-01T01:40:42.482Z,96.72
2024-02-01T01:43:09.348Z,102.78
2024-02-01T01:45:36.460Z,109.63
2024-02-01T01:48:04.026Z,116.47
2024-02-01T01:50:31.593Z,129.88
2024-02-01T01:52:59.620Z,129.35
2024-02-01T01:55:29.983Z,133.32
2024-02-01T02:00:25.229Z,131.15
2024-02-01T02:02:52.605Z,136.95
2024-02-01T02:05:19.701Z,140.15
2024-02-01T02:07:47.529Z,140.95
2024-02-01T02:10:17.047Z,146.40
2024-02-01T02:12:44.853Z,153.05
2024-02-01T02:15:12.644Z,142.25
2024-02-01T02:17:40.187Z,140.23
2024-02-01T02:20:18.741Z,141.27
2024-02-01T02:22:48.234Z,138.20
2024-02-01T02:25:15.671Z,140.65
2024-02-01T02:27:43.676Z,140.65
2024-02-01T02:30:15.509Z,141.32
2024-02-01T02:32:43.147Z,136.65
2024-02-01T02:35:15.433Z,134.23
2024-02-01T02:37:50.574Z,139.38
2024-02-01T02:40:23.701Z,137.30
2024-02-01T02:42:51.365Z,135.45
2024-02-01T02:45:19.583Z,132.70
2024-02-01T02:47:48.197Z,136.18
2024-02-01T02:50:15.719Z,132.32
2024-02-01T02:52:43.588Z,133.57
2024-02-01T02:55:10.780Z,135.27
2024-02-01T02:57:37.870Z,139.68
2024-02-01T03:00:07.517Z,133.85
2024-02-01T03:02:35.416Z,133.82
2024-02-01T03:05:03.174Z,130.02
2024-02-01T03:07:30.561Z,131.82
2024-02-01T03:09:57.673Z,129.63
2024-02-01T03:12:25.022Z,133.05
2024-02-01T03:14:52.426Z,133.98
2024-02-01T03:17:20.348Z,129.68
2024-02-01T03:19:52.710Z,116.70
2024-02-01T03:22:21.255Z,111.55
2024-02-01T03:24:49.107Z,104.65
2024-02-01T03:27:17.083Z,105.28
2024-02-01T03:29:45.373Z,101.93
2024-02-01T03:32:13.285Z,98.95
2024-02-01T03:34:43.666Z,101.22
2024-02-01T03:37:16.377Z,96.97
2024-02-01T03:39:47.686Z,91.65
2024-02-01T03:42:15.315Z,88.28
2024-02-01T03:44:42.753Z,90.78
2024-02-01T03:47:12.732Z,92.45
2024-02-01T03:49:41.136Z,90.90
2024-02-01T03:52:11.488Z,87.35
2024-02-01T03:57:07.069Z,79.93
2024-02-01T03:59:35.349Z,83.65
2024-02-01T04:02:06.175Z,84.72
2024-02-01T04:04:34.092Z,83.00
2024-02-01T04:07:01.673Z,85.70
2024-02-01T04:09:29.102Z,82.25
2024-02-01T04:11:56.289Z,83.90
2024-02-01T04:14:23.554Z,81.80
2024-02-01T04:16:50.754Z,83.22
2024-02-01T04:19:18.108Z,86.25
2024-02-01T04:21:49.762Z,87.80
2024-02-01T04:24:18.702Z,83.82
2024-02-01T04:26:47.331Z,82.65
2024-02-01T04:29:14.740Z,83.20
2024-02-01T04:31:42.100Z,83.53
2024-02-01T04:34:10.924Z,80.63
2024-02-01T04:36:38.031Z,85.30
2024-02-01T04:39:09.598Z,83.45
2024-02-01T04:41:40.185Z,83.90
2024-02-01T04:44:09.213Z,82.70
2024-02-01T04:46:36.352Z,80.93
2024-02-01T04:49:14.239Z,79.93
2024-02-01T04:51:43.453Z,79.00
2024-02-01T04:54:12.091Z,80.32
2024-02-01T04:56:41.741Z,78.90
2024-02-01T04:59:09.045Z,80.63
2024-02-01T05:01:36.272Z,78.80
2024-02-01T05:04:05.824Z,75.10
2024-02-01T05:06:33.454Z,78.90
2024-02-01T05:09:00.626Z,77.35
2024-02-01T05:11:28.891Z,78.35
2024-02-01T05:13:55.957Z,78.78
2024-02-01T05:16:22.969Z,78.05
2024-02-01T05:18:50.192Z,77.35
2024-02-01T05:21:17.657Z,76.72
2024-02-01T05:23:50.444Z,78.93
2024-02-01T05:26:17.562Z,77.93
2024-02-01T05:28:44.627Z,77.72
2024-02-01T05:31:11.980Z,75.50
2024-02-01T05:33:39.881Z,77.60
2024-02-01T05:36:18.422Z,78.05
2024-02-01T05:38:46.001Z,76.93
2024-02-01T05:41:16.101Z,77.68
2024-02-01T05:43:44.581Z,75.32
2024-02-01T05:46:15.943Z,76.47
2024-02-01T05:48:44.756Z,75.95
2024-02-01T05:51:11.900Z,76.28
2024-02-01T05:53:39.818Z,76.38
2024-02-01T05:56:07.263Z,77.57
2024-02-01T05:58:34.681Z,76.80
2024-02-01T06:01:01.686Z,75.20
2024-02-01T06:03:28.936Z,74.95
2024-02-01T06:05:56.169Z,75.25
2024-02-01T06:08:23.293Z,77.13
2024-02-01T06:10:50.522Z,77.60
2024-02-01T06:13:21.045Z,72.72
2024-02-01T06:15:53.941Z,72.32
2024-02-01T06:18:24.258Z,69.50
2024-02-01T06:23:18.731Z,67.43
2024-02-01T06:25:46.191Z,68.40
2024-02-01T06:28:14.276Z,74.32
2024-02-01T06:30:42.534Z,74.28
2024-02-01T06:33:09.846Z,71.78
2024-02-01T06:35:42.062Z,72.50
2024-02-01T06:38:24.993Z,72.25
2024-02-01T06:41:18.217Z,69.10
2024-02-01T06:44:20.706Z,68.35
2024-02-01T06:47:00.772Z,69.47
2024-02-01T06:49:36.118Z,72.07
2024-02-01T06:52:19.372Z,74.35
2024-02-01T06:55:09.350Z,72.47
2024-02-01T06:58:10.800Z,72.30
2024-02-01T07:00:51.353Z,72.28
2024-02-01T07:03:25.873Z,74.93
2024-02-01T07:05:53.734Z,75.20
2024-02-01T07:08:36.172Z,78.18
2024-02-01T07:11:12.217Z,78.65
2024-02-01T07:13:54.500Z,79.30
2024-02-01T07:16:39.806Z,77.22
2024-02-01T07:19:23.603Z,76.97
2024-02-01T07:22:10.495Z,75.80
2024-02-01T07:24:53.310Z,77.40
2024-02-01T07:27:38.757Z,71.28
2024-02-01T07:30:24.967Z,71.75
2024-02-01T07:33:10.761Z,70.65
2024-02-01T07:35:56.450Z,70.97
2024-02-01T07:38:42.133Z,70.45
2024-02-01T07:41:27.925Z,71.53
2024-02-01T07:44:13.484Z,86.03
2024-02-01T07:46:59.437Z,76.38
2024-02-01T07:49:45.069Z,69.22
2024-02-01T07:52:30.852Z,68.07
2024-02-01T07:55:16.783Z,64.45
2024-02-01T07:57:53.539Z,62.17
2024-02-01T08:00:29.965Z,61.72
2024-02-01T08:03:14.020Z,60.85
2024-02-01T08:06:00.296Z,58.95
2024-02-01T08:08:27.457Z,58.10
2024-02-01T08:10:58.370Z,55.00
2024-02-01T08:13:28.013Z,55.33
2024-02-01T08:15:57.149Z,55.10
2024-02-01T08:18:27.543Z,55.33
2024-02-01T08:23:22.100Z,52.22
2024-02-01T08:25:50.601Z,49.97
2024-02-01T08:28:18.230Z,49.92
2024-02-01T08:30:46.667Z,49.97
2024-02-01T08:33:17.497Z,49.05
2024-02-01T08:35:45.174Z,46.90
2024-02-01T08:38:12.476Z,48.28
2024-02-01T08:40:42.978Z,47.03
2024-02-01T08:43:14.432Z,45.90
2024-02-01T08:45:46.488Z,45.53
2024-02-01T08:48:14.536Z,44.45
2024-02-01T08:50:51.213Z,42.10
2024-02-01T08:53:20.019Z,43.97
2024-02-01T08:55:47.432Z,42.30
2024-02-01T08:58:14.496Z,42.22
2024-02-01T09:00:44.972Z,40.60
2024-02-01T09:03:19.672Z,38.17
2024-02-01T09:05:49.156Z,40.90
2024-02-01T09:08:41.519Z,39.30
2024-02-01T09:11:19.346Z,40.15
2024-02-01T09:13:48.129Z,39.28
2024-02-01T09:16:32.583Z,38.60
2024-02-01T09:19:04.596Z,39.92
2024-02-01T09:21:32.164Z,39.22
2024-02-01T09:24:00.058Z,39.42
2024-02-01T09:26:27.188Z,42.30
2024-02-01T09:28:54.042Z,42.45
2024-02-01T09:31:21.350Z,44.75
2024-02-01T09:33:50.262Z,44.55
2024-02-01T09:36:17.723Z,41.95
2024-02-01T09:38:44.756Z,40.53
2024-02-01T09:41:19.219Z,40.60
2024-02-01T09:43:50.099Z,42.38
2024-02-01T09:46:21.273Z,43.33
2024-02-01T09:48:49.328Z,41.42
2024-02-01T09:51:20.043Z,40.53
2024-02-01T09:53:51.698Z,40.92
2024-02-01T09:56:19.169Z,37.85
2024-02-01T09:58:46.157Z,35.92
2024-02-01T10:01:14.418Z,37.17
2024-02-01T10:03:46.212Z,36.15
2024-02-01T10:06:14.541Z,36.35
2024-02-01T10:08:42.118Z,33.05
2024-02-01T10:11:09.275Z,33.75
2024-02-01T10:13:39.495Z,32.40
2024-02-01T10:16:15.687Z,32.58
2024-02-01T10:18:43.526Z,33.28
2024-02-01T10:21:35.727Z,31.80
2024-02-01T10:24:08.830Z,30.85
2024-02-01T10:26:37.995Z,31.50
2024-02-01T10:29:05.268Z,30.92
2024-02-01T10:31:36.697Z,30.27
2024-02-01T10:34:12.739Z,29.13
2024-02-01T10:36:46.776Z,30.17
2024-02-01T10:39:22.277Z,29.85
2024-02-01T10:41:56.123Z,29.70
2024-02-01T10:44:35.613Z,28.73
2024-02-01T10:47:06.876Z,28.60
2024-02-01T10:49:39.170Z,28.23
2024-02-01T10:52:08.289Z,28.42
2024-02-01T10:54:36.934Z,30.65
2024-02-01T10:57:08.068Z,27.77
2024-02-01T10:59:36.711Z,25.75
2024-02-01T11:02:04.382Z,25.02
2024-02-01T11:04:36.672Z,24.70
2024-02-01T11:07:04.147Z,26.02
2024-02-01T11:09:32.351Z,24.65
2024-02-01T11:12:00.599Z,24.57
2024-02-01T11:14:33.384Z,25.60
2024-02-01T11:17:04.264Z,25.10
2024-02-01T11:19:32.234Z,26.80
2024-02-01T11:22:05.487Z,26.17
2024-02-01T11:24:39.312Z,25.75
2024-02-01T11:27:19.737Z,29.67
2024-02-01T11:29:48.900Z,29.05
2024-02-01T11:32:20.459Z,28.83
2024-02-01T11:34:51.875Z,28.50
2024-02-01T11:37:19.824Z,27.75
2024-02-01T11:39:47.562Z,27.13
2024-02-01T11:42:23.534Z,27.05
2024-02-01T11:45:02.687Z,27.90
2024-02-01T11:47:31.380Z,25.58
2024-02-01T11:49:58.667Z,24.63
2024-02-01T11:53:07.106Z,22.48
2024-02-01T11:55:36.238Z,22.17
2024-02-01T11:58:04.359Z,21.60
2024-02-01T12:00:44.351Z,23.63
2024-02-01T12:03:21.588Z,27.05
2024-02-01T12:05:49.306Z,26.58
2024-02-01T12:08:16.375Z,25.70
2024-02-01T12:10:48.034Z,26.00
2024-02-01T12:13:17.265Z,27.00
2024-02-01T12:15:45.631Z,29.47
2024-02-01T12:18:15.344Z,29.20
2024-02-01T12:20:46.788Z,29.27
2024-02-01T12:23:14.639Z,29.25
2024-02-01T12:25:46.472Z,29.05
2024-02-01T12:28:13.427Z,28.90
2024-02-01T12:30:44.680Z,28.88
2024-02-01T12:33:16.788Z,29.17
2024-02-01T12:35:46.022Z,30.30
2024-02-01T12:38:16.328Z,28.67
2024-02-01T12:43:11.220Z,30.08
2024-02-01T12:45:38.581Z,30.98
2024-02-01T12:48:07.056Z,31.05
2024-02-01T12:50:42.622Z,32.65
2024-02-01T12:53:10.149Z,33.72
2024-02-01T12:55:37.400Z,35.25
2024-02-01T12:58:04.965Z,34.60
2024-02-01T13:00:32.102Z,34.05
2024-02-01T13:03:01.621Z,35.50
2024-02-01T13:05:28.941Z,37.03
2024-02-01T13:07:56.044Z,35.25
2024-02-01T13:10:23.141Z,36.45
2024-02-01T13:12:57.380Z,36.92
2024-02-01T13:15:26.589Z,36.85
2024-02-01T13:17:54.957Z,37.28
2024-02-01T13:20:23.333Z,35.83
2024-02-01T13:22:51.890Z,37.17
2024-02-01T13:25:22.963Z,37.63
2024-02-01T13:27:54.325Z,37.70
2024-02-01T13:30:26.999Z,39.65
2024-02-01T13:33:00.622Z,36.65
2024-02-01T13:35:28.095Z,36.63
2024-02-01T13:37:56.972Z,38.40
2024-02-01T13:40:24.834Z,37.47
2024-02-01T13:42:54.555Z,36.25
2024-02-01T13:45:21.851Z,37.25
2024-02-01T13:47:54.568Z,36.55
2024-02-01T13:50:26.258Z,35.33
2024-02-01T13:52:58.359Z,37.72
2024-02-01T13:55:27.239Z,35.95
2024-02-01T13:57:55.760Z,37.42
2024-02-01T14:00:24.146Z,36.58
2024-02-01T14:02:53.516Z,35.95
2024-02-01T14:05:23.729Z,35.95
2024-02-01T14:07:53.882Z,36.42
2024-02-01T14:10:24.148Z,35.05
2024-02-01T14:12:51.577Z,37.60
2024-02-01T14:15:19.198Z,34.72
2024-02-01T14:17:46.841Z,36.17
2024-02-01T14:20:17.503Z,36.85
2024-02-01T14:22:46.606Z,32.50
2024-02-01T14:25:15.045Z,32.15
2024-02-01T14:27:42.874Z,32.15
2024-02-01T14:30:18.489Z,32.25
2024-02-01T14:32:47.635Z,29.95
2024-02-01T14:35:18.740Z,32.40
2024-02-01T14:37:46.600Z,30.90
2024-02-01T14:40:14.939Z,33.25
2024-02-01T14:42:43.928Z,32.60
2024-02-01T14:45:11.410Z,31.90
2024-02-01T14:47:39.216Z,32.58
2024-02-01T14:50:07.108Z,31.90
2024-02-01T14:52:34.478Z,32.63
2024-02-01T14:55:01.776Z,32.03
2024-02-01T14:57:29.046Z,32.47
2024-02-01T14:59:56.221Z,32.47
2024-02-01T15:02:23.670Z,34.00
2024-02-01T15:04:51.090Z,35.78
2024-02-01T15:07:19.602Z,39.00
2024-02-01T15:09:47.093Z,39.70
2024-02-01T15:12:15.358Z,39.45
2024-02-01T15:14:42.810Z,38.83
2024-02-01T15:17:14.492Z,40.15
2024-02-01T15:19:53.290Z,39.55
2024-02-01T15:22:22.019Z,39.38
2024-02-01T15:24:49.815Z,39.03
2024-02-01T15:27:17.354Z,40.25
2024-02-01T15:29:44.864Z,40.67
2024-02-01T15:32:17.997Z,40.10
2024-02-01T15:34:46.497Z,41.03
2024-02-01T15:37:14.010Z,41.67
2024-02-01T15:42:12.360Z,43.38
2024-02-01T15:44:41.304Z,43.25
2024-02-01T15:47:08.810Z,44.17
2024-02-01T15:49:38.385Z,44.20
2024-02-01T15:52:07.288Z,44.22
2024-02-01T15:54:34.542Z,46.63
2024-02-01T15:57:01.927Z,45.80
2024-02-01T15:59:29.043Z,47.67
2024-02-01T16:01:56.170Z,50.55
2024-02-01T16:04:23.393Z,50.42
2024-02-01T16:06:52.534Z,50.15
2024-02-01T16:09:20.769Z,49.85
2024-02-01T16:11:48.131Z,53.28
2024-02-01T16:14:23.923Z,52.40
2024-02-01T16:17:09.254Z,50.92
2024-02-01T16:19:40.011Z,47.35
2024-02-01T16:22:09.296Z,50.25
2024-02-01T16:24:37.143Z,45.40
2024-02-01T16:27:47.203Z,47.58
2024-02-01T16:30:33.748Z,49.03
2024-02-01T16:33:09.044Z,54.10
2024-02-01T16:35:50.417Z,56.95
2024-02-01T16:38:20.192Z,54.97
2024-02-01T16:40:47.299Z,55.90
2024-02-01T16:43:33.740Z,59.45
2024-02-01T16:46:01.300Z,54.05
2024-02-01T16:48:28.733Z,52.25
2024-02-01T16:50:56.275Z,51.60
2024-02-01T16:53:40.231Z,46.40
2024-02-01T16:56:11.128Z,44.75
2024-02-01T16:58:44.093Z,47.63
2024-02-01T17:01:52.596Z,45.10
2024-02-01T17:04:30.635Z,44.92
2024-02-01T17:07:03.716Z,47.42
2024-02-01T17:09:35.871Z,45.03
2024-02-01T17:12:03.694Z,47.35
2024-02-01T17:14:37.911Z,45.38
2024-02-01T17:17:15.017Z,44.53
2024-02-01T17:19:44.044Z,46.17
2024-02-01T17:22:37.195Z,46.08
2024-02-01T17:25:08.384Z,42.47
2024-02-01T17:27:39.743Z,41.25
2024-02-01T17:30:45.419Z,43.47
2024-02-01T17:33:52.487Z,61.63
2024-02-01T17:36:21.289Z,52.40
2024-02-01T17:38:53.229Z,42.85
2024-02-01T17:41:21.748Z,43.65
2024-02-01T17:43:50.243Z,46.88
2024-02-01T17:46:33.116Z,48.50
2024-02-01T17:49:02.800Z,46.00
2024-02-01T17:51:35.639Z,46.83
2024-02-01T17:54:06.554Z,47.35
2024-02-01T17:56:37.376Z,48.08
2024-02-01T17:59:05.671Z,47.38
2024-02-01T18:01:42.075Z,48.47
2024-02-01T18:04:42.043Z,48.45
2024-02-01T18:07:13.867Z,49.42
2024-02-01T18:09:42.164Z,47.35
2024-02-01T18:12:10.387Z,48.75
2024-02-01T18:14:38.667Z,49.78
2024-02-01T18:17:07.275Z,52.67
2024-02-01T18:19:34.885Z,51.67
2024-02-01T18:22:02.475Z,49.50
2024-02-01T18:24:48.582Z,53.58
2024-02-01T18:27:28.620Z,56.40
2024-02-01T18:30:00.669Z,54.45
2024-02-01T18:32:36.532Z,52.85
2024-02-01T18:35:17.606Z,60.15
2024-02-01T18:37:45.574Z,59.45
2024-02-01T18:40:22.037Z,57.15
2024-02-01T18:43:00.334Z,57.63
2024-02-01T18:45:48.153Z,54.90
2024-02-01T18:48:27.862Z,54.83
2024-02-01T18:50:56.318Z,49.00
2024-02-01T18:53:42.967Z,53.33
2024-02-01T18:56:24.703Z,53.97
2024-02-01T18:58:53.262Z,53.25
2024-02-01T19:01:26.344Z,55.95
2024-02-01T19:04:17.352Z,56.60
2024-02-01T19:06:48.184Z,54.30
2024-02-01T19:09:21.993Z,55.85
2024-02-01T19:11:55.233Z,56.10
2024-02-01T19:14:39.101Z,56.47
2024-02-01T19:17:15.317Z,54.67
2024-02-01T19:19:47.349Z,54.85
2024-02-01T19:22:32.913Z,54.03
2024-02-01T19:25:00.575Z,50.90
2024-02-01T19:27:39.987Z,50.92
2024-02-01T19:30:12.152Z,52.40
2024-02-01T19:32:52.846Z,53.88
2024-02-01T19:35:27.553Z,54.53
2024-02-01T19:38:00.803Z,55.92
2024-02-01T19:40:28.427Z,56.15
2024-02-01T19:42:55.405Z,55.10
2024-02-01T19:45:22.777Z,58.25
2024-02-01T19:47:50.141Z,55.75
2024-02-01T19:50:17.848Z,59.17
2024-02-01T19:52:44.833Z,60.30
2024-02-01T19:55:11.996Z,61.78
2024-02-01T19:57:38.976Z,64.97
2024-02-01T20:00:08.231Z,63.30
2024-02-01T20:02:43.574Z,63.63
2024-02-01T20:05:10.563Z,61.65
2024-02-01T20:07:37.647Z,64.03
2024-02-01T20:10:05.067Z,63.28
2024-02-01T20:12:32.099Z,63.85
2024-02-01T20:14:59.325Z,63.05
2024-02-01T20:17:27.351Z,65.05
2024-02-01T20:19:56.004Z,63.30
2024-02-01T20:22:23.191Z,62.70
2024-02-01T20:24:50.307Z,64.03
2024-02-01T20:27:20.659Z,66.75
2024-02-01T20:29:50.713Z,62.47
2024-02-01T20:32:19.271Z,65.60
2024-02-01T20:34:47.514Z,66.97
2024-02-01T20:37:20.752Z,66.50
2024-02-01T20:39:48.094Z,66.95
2024-02-01T20:42:24.497Z,69.70
2024-02-01T20:44:56.077Z,71.00
2024-02-01T20:47:39.386Z,69.22
2024-02-01T20:50:36.409Z,70.55
2024-02-01T20:53:28.992Z,68.88
2024-02-01T20:55:56.017Z,70.53
2024-02-01T20:58:44.539Z,70.72
2024-02-01T21:01:19.148Z,71.07
2024-02-01T21:03:47.157Z,73.32
2024-02-01T21:06:14.354Z,71.90
2024-02-01T21:08:43.960Z,69.85
2024-02-01T21:11:10.983Z,67.70
2024-02-01T21:13:51.126Z,68.18
2024-02-01T21:19:01.954Z,62.55
2024-02-01T21:21:29.891Z,64.70
2024-02-01T21:23:58.800Z,64.63
2024-02-01T21:26:31.183Z,63.63
2024-02-01T21:29:13.886Z,63.55
2024-02-01T21:31:43.472Z,64.05
2024-02-01T21:34:12.354Z,63.95
2024-02-01T21:36:39.609Z,61.33
2024-02-01T21:39:24.497Z,60.50
2024-02-01T21:41:51.546Z,60.75
2024-02-01T21:44:18.560Z,58.25
2024-02-01T21:46:46.215Z,57.50
2024-02-01T21:49:13.912Z,60.60
2024-02-01T21:51:41.245Z,59.63
2024-02-01T21:54:08.191Z,55.03
2024-02-01T21:56:35.179Z,55.83
2024-02-01T21:59:05.453Z,55.10
2024-02-01T22:01:32.660Z,52.25
2024-02-01T22:03:59.952Z,53.40
2024-02-01T22:06:28.558Z,57.78
2024-02-01T22:08:55.577Z,51.85
2024-02-01T22:11:22.666Z,51.88
2024-02-01T22:13:49.686Z,49.10
2024-02-01T22:16:16.698Z,53.47
2024-02-01T22:18:43.869Z,52.00
2024-02-01T22:21:10.897Z,54.15
2024-02-01T22:23:37.875Z,48.72
2024-02-01T22:26:05.097Z,51.28
2024-02-01T22:28:32.096Z,47.50
2024-02-01T22:30:59.074Z,50.15
2024-02-01T22:33:27.059Z,48.25
2024-02-01T22:35:54.407Z,50.28
2024-02-01T22:38:22.300Z,47.22
2024-02-01T22:40:50.701Z,44.83
2024-02-01T22:43:17.737Z,39.53
2024-02-01T22:45:44.709Z,41.88
2024-02-01T22:48:11.991Z,44.38
2024-02-01T22:50:39.793Z,50.38
2024-02-01T22:53:06.723Z,53.35
2024-02-01T22:55:33.764Z,50.15
2024-02-01T22:58:00.797Z,47.95
2024-02-01T23:00:28.458Z,48.83
2024-02-01T23:02:55.613Z,49.88
2024-02-01T23:05:22.692Z,49.80
2024-02-01T23:07:49.679Z,53.33
2024-02-01T23:10:18.433Z,58.83
2024-02-01T23:12:49.391Z,63.42
2024-02-01T23:15:22.715Z,63.70
2024-02-01T23:17:57.730Z,65.40
2024-02-01T23:20:26.094Z,68.00
2024-02-01T23:22:56.240Z,70.15
2024-02-01T23:25:23.564Z,80.13
2024-02-01T23:27:50.712Z,82.30
2024-02-01T23:30:18.124Z,78.65
2024-02-01T23:32:45.214Z,78.05
2024-02-01T23:35:12.931Z,79.05
2024-02-01T23:37:39.824Z,82.20
2024-02-01T23:40:07.302Z,80.20
2024-02-01T23:42:34.272Z,77.80
2024-02-01T23:45:01.369Z,78.40
2024-02-01T23:47:28.610Z,73.88
2024-02-01T23:49:55.811Z,74.40
2024-02-01T23:52:23.151Z,74.78
2024-02-01T23:54:50.285Z,74.88
2024-02-01T23:57:17.277Z,78.43
2024-02-01T23:59:49.068Z,79.75
